Terminal Aerodrome Forecast
Issued by NWS

Home | Current Version | Previous Version | Text Only | Print | Product List | Glossary On
Versions: 1 2 3 4 5 6 7 8 9 10 11 12 13 14 15
000
FTUS46 KSGX 271124
TAFSNA
TAF
KSNA 271124Z 2712/2812 VRB04KT P6SM SCT200 WS015/07020KT
     FM271600 04008G16KT P6SM SCT250
     FM271900 25010KT P6SM SCT250
     FM280200 VRB04KT P6SM SKC=

USA.gov is the U.S. government's official web portal to all federal, state and local government web resources and services.